createdAt,value
2022-11-08T00:06:50.181Z,10.68
2022-11-08T00:16:53.714Z,10.66
2022-11-08T00:26:56.899Z,10.64
2022-11-08T00:37:00.395Z,10.60
2022-11-08T00:47:04.627Z,10.48
2022-11-08T00:57:07.839Z,10.49
2022-11-08T01:07:11.104Z,10.38
2022-11-08T01:17:14.374Z,10.31
2022-11-08T01:27:17.564Z,10.36
2022-11-08T01:37:20.922Z,10.47
2022-11-08T01:47:24.074Z,10.47
2022-11-08T01:57:40.365Z,10.41
2022-11-08T02:07:43.574Z,10.35
2022-11-08T02:17:46.764Z,10.47
2022-11-08T02:27:49.925Z,10.42
2022-11-08T02:37:53.793Z,10.42
2022-11-08T02:47:56.943Z,10.34
2022-11-08T02:58:00.736Z,10.38
2022-11-08T03:08:04.393Z,10.46
2022-11-08T03:18:07.638Z,10.52
2022-11-08T03:28:10.870Z,10.51
2022-11-08T03:38:14.916Z,10.53
2022-11-08T03:48:19.261Z,10.28
2022-11-08T03:58:22.696Z,10.17
2022-11-08T04:08:25.845Z,10.07
2022-11-08T04:18:47.786Z,9.93
2022-11-08T04:28:51.041Z,9.82
2022-11-08T04:38:54.675Z,9.70
2022-11-08T04:49:00.638Z,9.65
2022-11-08T04:59:06.227Z,9.55
2022-11-08T05:09:12.845Z,9.61
2022-11-08T05:19:36.031Z,9.69
2022-11-08T05:29:42.198Z,9.76
2022-11-08T05:39:45.691Z,9.74
2022-11-08T05:49:48.895Z,9.73
2022-11-08T05:59:52.326Z,9.78
2022-11-08T06:10:25.879Z,9.93
2022-11-08T06:20:29.351Z,10.15
2022-11-08T06:30:32.568Z,10.44
2022-11-08T06:40:37.961Z,10.60
2022-11-08T06:50:42.645Z,10.76
2022-11-08T07:00:45.854Z,10.78
2022-11-08T07:10:49.059Z,10.93
2022-11-08T07:20:53.000Z,11.18
2022-11-08T07:31:02.215Z,11.31
2022-11-08T07:41:05.531Z,11.79
2022-11-08T07:51:08.766Z,12.12
2022-11-08T08:01:13.626Z,12.23
2022-11-08T08:11:16.932Z,12.47
2022-11-08T08:21:20.149Z,12.50
2022-11-08T08:31:23.396Z,12.37
2022-11-08T08:41:26.625Z,12.50
2022-11-08T08:51:29.909Z,12.56
2022-11-08T09:01:40.385Z,12.73
2022-11-08T09:11:43.771Z,12.91
2022-11-08T09:21:46.999Z,13.23
2022-11-08T09:31:50.243Z,13.48
2022-11-08T09:42:11.132Z,13.68
2022-11-08T09:52:23.857Z,13.78
2022-11-08T10:02:28.139Z,14.16
2022-11-08T10:12:49.882Z,14.32
2022-11-08T10:22:53.013Z,14.60
2022-11-08T10:32:57.662Z,14.88
2022-11-08T10:43:10.243Z,14.93
2022-11-08T10:53:35.166Z,14.78
2022-11-08T11:03:38.359Z,14.59
2022-11-08T11:13:41.521Z,14.40
2022-11-08T11:23:47.671Z,14.49
2022-11-08T11:33:50.868Z,14.55
2022-11-08T11:44:07.394Z,14.78
2022-11-08T11:54:15.566Z,15.01
2022-11-08T12:04:27.877Z,14.95
2022-11-08T12:15:00.800Z,14.94
2022-11-08T12:25:07.080Z,15.16
2022-11-08T12:35:35.929Z,15.29
2022-11-08T12:45:39.693Z,15.43
2022-11-08T12:55:47.564Z,15.37
2022-11-08T13:06:09.019Z,15.44
2022-11-08T13:16:12.348Z,15.27
2022-11-08T13:26:24.464Z,15.28
2022-11-08T13:36:43.411Z,15.13
2022-11-08T13:46:48.415Z,14.94
2022-11-08T13:56:57.004Z,14.64
2022-11-08T14:07:03.970Z,14.34
2022-11-08T14:17:12.832Z,14.12
2022-11-08T14:27:34.093Z,13.91
2022-11-08T14:37:37.799Z,13.67
2022-11-08T14:47:42.528Z,13.42
2022-11-08T14:57:46.924Z,13.30
2022-11-08T15:07:50.270Z,13.11
2022-11-08T15:18:12.759Z,12.92
2022-11-08T15:28:21.811Z,12.72
2022-11-08T15:38:39.563Z,12.55
2022-11-08T15:48:42.820Z,12.36
2022-11-08T15:58:46.246Z,12.17
2022-11-08T16:08:49.715Z,12.02
2022-11-08T16:18:53.126Z,11.88
2022-11-08T16:28:56.304Z,11.75
2022-11-08T16:39:02.998Z,11.61
2022-11-08T16:49:07.624Z,11.50
2022-11-08T16:59:10.861Z,11.43
2022-11-08T17:09:14.098Z,11.26
2022-11-08T17:19:17.256Z,11.11
2022-11-08T17:29:20.846Z,10.97
2022-11-08T17:39:24.154Z,10.89
2022-11-08T17:49:27.311Z,10.83
2022-11-08T17:59:30.661Z,10.81
2022-11-08T18:09:34.179Z,10.77
2022-11-08T18:19:37.544Z,10.72
2022-11-08T18:29:40.811Z,10.66
2022-11-08T18:39:44.053Z,10.63
2022-11-08T18:49:47.193Z,10.61
2022-11-08T18:59:50.473Z,10.62
2022-11-08T19:09:53.842Z,10.63
2022-11-08T19:19:57.110Z,10.70
2022-11-08T19:30:00.645Z,10.75
2022-11-08T19:40:05.240Z,10.75
2022-11-08T19:50:08.649Z,10.76
2022-11-08T20:00:13.814Z,10.80
2022-11-08T20:10:18.376Z,10.77
2022-11-08T20:20:21.833Z,10.79
2022-11-08T20:30:25.134Z,10.82
2022-11-08T20:40:28.328Z,10.81
2022-11-08T20:50:31.648Z,10.82
2022-11-08T21:00:57.864Z,10.80
2022-11-08T21:10:59.916Z,10.77
2022-11-08T21:21:12.235Z,10.78
2022-11-08T21:31:15.909Z,10.77
2022-11-08T21:41:19.166Z,10.73
2022-11-08T21:51:23.441Z,10.63
2022-11-08T22:01:30.652Z,10.57
2022-11-08T22:11:35.858Z,10.55
2022-11-08T22:21:39.574Z,10.56
2022-11-08T22:31:44.243Z,10.55
2022-11-08T22:41:53.220Z,10.55
2022-11-08T22:51:56.428Z,10.48
2022-11-08T23:02:01.275Z,10.42
2022-11-08T23:12:24.917Z,10.35
2022-11-08T23:22:46.652Z,10.22
2022-11-08T23:32:51.082Z,10.06
2022-11-08T23:43:32.059Z,10.06
2022-11-08T23:53:37.471Z,10.03
